Time;durP1;ratioP1;P1;durP2;ratioP2;P2;SDS_P1;SDS_P2;PMS_P1;PMS_P2;Temp;Humidity;BMP_temperature;BMP_pressure;BME280_temperature;BME280_humidity;BME280_pressure;Samples;Min_cycle;Max_cycle;Signal;HPM_P1;HPM_P2
2022/04/24 00:02:03;;;;;;;30.40;7.78;;;17.90;63.70;;;;;;5026225;28;20032;-73
2022/04/24 00:04:29;;;;;;;19.63;5.38;;;17.90;63.60;;;;;;5006341;28;20036;-73
2022/04/24 00:06:55;;;;;;;22.23;5.07;;;17.80;63.50;;;;;;5025443;28;20472;-76
2022/04/24 00:09:22;;;;;;;21.65;4.45;;;17.80;63.40;;;;;;5026398;28;20034;-77
2022/04/24 00:11:49;;;;;;;21.17;4.70;;;17.80;63.30;;;;;;5026432;28;20091;-76
2022/04/24 00:14:17;;;;;;;24.15;5.95;;;17.80;63.40;;;;;;5023920;28;20044;-73
2022/04/24 00:16:46;;;;;;;22.02;4.93;;;17.80;63.30;;;;;;5026175;28;20036;-77
2022/04/24 00:19:12;;;;;;;25.17;5.40;;;17.80;63.30;;;;;;5024773;28;20034;-74
2022/04/24 00:21:39;;;;;;;21.08;6.15;;;17.80;63.40;;;;;;5026172;28;20025;-73
2022/04/24 00:24:05;;;;;;;25.33;7.68;;;17.80;63.40;;;;;;5025536;28;20021;-78
2022/04/24 00:26:32;;;;;;;21.02;8.25;;;17.80;63.30;;;;;;5026541;28;20067;-78
2022/04/24 00:28:58;;;;;;;23.10;9.55;;;17.70;63.30;;;;;;5026317;28;20024;-74
2022/04/24 00:31:25;;;;;;;30.80;10.68;;;17.70;63.20;;;;;;5025891;28;20091;-77
2022/04/24 00:33:51;;;;;;;25.55;11.27;;;17.70;63.20;;;;;;5026375;28;20017;-77
2022/04/24 00:36:18;;;;;;;17.98;8.32;;;17.70;63.10;;;;;;5025749;28;20049;-77
2022/04/24 00:38:44;;;;;;;23.40;8.57;;;17.70;63.10;;;;;;5025665;28;20028;-76
2022/04/24 00:41:11;;;;;;;18.38;7.70;;;17.70;63.00;;;;;;5024950;28;20018;-75
2022/04/24 00:43:37;;;;;;;15.02;6.53;;;17.70;63.00;;;;;;5023564;28;20108;-77
2022/04/24 00:46:18;;;;;;;15.52;5.90;;;17.70;63.00;;;;;;5007814;28;20033;-80
2022/04/24 00:48:45;;;;;;;14.57;5.38;;;17.70;63.00;;;;;;5024611;28;20021;-76
2022/04/24 00:51:12;;;;;;;10.65;4.13;;;17.70;63.10;;;;;;5026961;28;20021;-76
2022/04/24 00:53:38;;;;;;;9.32;4.75;;;17.70;63.20;;;;;;5025553;28;20060;-71
2022/04/24 00:56:08;;;;;;;9.98;4.63;;;17.70;63.40;;;;;;5026219;28;20020;-78
2022/04/24 00:58:35;;;;;;;16.10;5.07;;;17.60;63.20;;;;;;5025607;28;20021;-74
2022/04/24 01:01:02;;;;;;;7.63;3.03;;;17.60;63.30;;;;;;5026825;28;20372;-77
2022/04/24 01:03:29;;;;;;;7.38;3.35;;;17.70;63.20;;;;;;5025246;28;20083;-77
2022/04/24 01:05:56;;;;;;;6.75;3.28;;;17.60;63.10;;;;;;5025472;28;20076;-75
2022/04/24 01:08:22;;;;;;;5.25;2.50;;;17.60;63.00;;;;;;5026386;28;20024;-69
2022/04/24 01:10:49;;;;;;;11.73;4.03;;;17.60;63.00;;;;;;5024587;28;20053;-74
2022/04/24 01:13:18;;;;;;;10.00;4.13;;;17.60;62.80;;;;;;5007729;28;20464;-71
2022/04/24 01:15:45;;;;;;;8.70;2.88;;;17.60;62.80;;;;;;5024468;28;20014;-67
2022/04/24 01:18:11;;;;;;;8.98;4.55;;;17.60;62.80;;;;;;5026021;28;20645;-66
2022/04/24 01:20:38;;;;;;;5.45;2.95;;;17.50;62.60;;;;;;5024788;28;20046;-68
2022/04/24 01:23:05;;;;;;;10.75;4.32;;;17.60;62.40;;;;;;5024561;28;20092;-72
2022/04/24 01:25:31;;;;;;;8.88;3.58;;;17.50;62.30;;;;;;5025769;28;20693;-68
2022/04/24 01:27:57;;;;;;;11.68;4.18;;;17.50;62.30;;;;;;5024009;28;20017;-69
2022/04/24 01:30:24;;;;;;;8.40;4.97;;;17.50;62.10;;;;;;5023646;28;20038;-70
2022/04/24 01:32:50;;;;;;;8.07;4.07;;;17.50;61.90;;;;;;5023231;28;20083;-69
2022/04/24 01:35:18;;;;;;;10.65;4.13;;;17.50;62.00;;;;;;5026575;28;20033;-74
2022/04/24 01:37:45;;;;;;;13.95;4.65;;;17.40;62.00;;;;;;5025955;28;20026;-68
2022/04/24 01:40:11;;;;;;;10.93;4.63;;;17.40;61.90;;;;;;5029121;28;20037;-67
2022/04/24 01:42:38;;;;;;;11.93;4.57;;;17.40;61.80;;;;;;5029000;28;20104;-72
2022/04/24 01:45:05;;;;;;;14.27;4.53;;;17.30;61.70;;;;;;5026338;28;20013;-68
2022/04/24 01:47:31;;;;;;;7.35;3.92;;;17.30;61.80;;;;;;5028449;28;20168;-79
2022/04/24 01:49:58;;;;;;;9.50;4.53;;;17.30;61.90;;;;;;5026992;28;20116;-77
2022/04/24 01:52:25;;;;;;;9.13;4.13;;;17.30;62.10;;;;;;5028172;28;20060;-78
2022/04/24 01:54:52;;;;;;;11.23;5.03;;;17.30;62.20;;;;;;5026624;28;20646;-79
2022/04/24 01:57:18;;;;;;;12.40;4.53;;;17.30;62.30;;;;;;5026741;28;20546;-76
2022/04/24 01:59:44;;;;;;;11.25;4.80;;;17.30;62.30;;;;;;5026790;28;20044;-78
2022/04/24 02:02:11;;;;;;;21.95;5.30;;;17.20;62.40;;;;;;5027192;28;20040;-80
2022/04/24 02:04:37;;;;;;;9.18;4.55;;;17.20;62.50;;;;;;5027396;28;20027;-81
2022/04/24 02:07:06;;;;;;;12.80;5.03;;;17.20;62.80;;;;;;5026805;28;20013;-76
2022/04/24 02:09:33;;;;;;;11.73;6.15;;;17.20;62.90;;;;;;5028118;28;20116;-70
2022/04/24 02:12:00;;;;;;;9.60;4.43;;;17.20;63.00;;;;;;5024427;28;20076;-76
2022/04/24 02:14:27;;;;;;;10.00;4.15;;;17.20;63.10;;;;;;5027441;28;20021;-81
2022/04/24 02:16:53;;;;;;;6.82;4.45;;;17.20;63.20;;;;;;5028307;28;20029;-80
2022/04/24 02:19:19;;;;;;;9.38;3.58;;;17.20;63.20;;;;;;5023570;28;20052;-80
2022/04/24 02:21:46;;;;;;;9.05;3.88;;;17.20;63.20;;;;;;5030188;28;20146;-82
2022/04/24 02:24:13;;;;;;;8.45;3.85;;;17.10;63.20;;;;;;5026410;28;20556;-77
2022/04/24 02:26:39;;;;;;;13.75;5.03;;;17.10;63.30;;;;;;5028337;28;20014;-78
2022/04/24 02:29:06;;;;;;;20.20;5.80;;;17.10;63.20;;;;;;5027535;28;20492;-73
2022/04/24 02:31:33;;;;;;;18.75;7.78;;;17.10;63.30;;;;;;5027637;28;20045;-78
2022/04/24 02:33:59;;;;;;;14.23;7.15;;;17.10;64.00;;;;;;5026821;28;20480;-79
2022/04/24 02:36:25;;;;;;;29.95;6.50;;;17.20;64.40;;;;;;5026948;28;20025;-76
2022/04/24 02:38:52;;;;;;;14.02;7.97;;;17.10;64.30;;;;;;5028403;28;20049;-71
2022/04/24 02:41:18;;;;;;;19.80;7.97;;;17.20;64.50;;;;;;5027206;28;20029;-75
2022/04/24 02:43:45;;;;;;;29.00;8.52;;;17.20;64.60;;;;;;5027535;28;20013;-78
2022/04/24 02:46:11;;;;;;;14.98;8.18;;;17.20;64.80;;;;;;5026878;28;20029;-80
2022/04/24 02:48:38;;;;;;;16.67;6.80;;;17.20;64.20;;;;;;5027914;28;20022;-84
2022/04/24 02:51:04;;;;;;;11.65;4.90;;;17.20;62.50;;;;;;5026045;28;20332;-79
2022/04/24 02:53:31;;;;;;;9.30;4.97;;;17.20;62.10;;;;;;5027189;28;20393;-73
2022/04/24 02:55:57;;;;;;;13.38;4.43;;;17.10;62.00;;;;;;5008988;28;20428;-74
2022/04/24 02:58:25;;;;;;;11.48;3.22;;;17.10;62.60;;;;;;5026234;28;20401;-76
2022/04/24 03:00:52;;;;;;;12.20;2.95;;;17.10;63.10;;;;;;5043355;28;20180;-73
2022/04/24 03:03:19;;;;;;;7.30;2.05;;;17.10;62.40;;;;;;5025371;28;20109;-65
2022/04/24 03:05:49;;;;;;;7.85;2.70;;;17.10;61.90;;;;;;5027240;28;20448;-77
2022/04/24 03:08:19;;;;;;;10.95;2.67;;;17.10;61.60;;;;;;5008409;28;20025;-81
2022/04/24 03:10:46;;;;;;;8.18;2.92;;;17.10;61.70;;;;;;5027786;28;20119;-79
2022/04/24 03:13:12;;;;;;;8.50;2.45;;;17.10;61.90;;;;;;5000436;28;20381;-79
2022/04/24 03:15:39;;;;;;;8.88;2.40;;;17.10;61.80;;;;;;5006232;28;20095;-80
2022/04/24 03:18:06;;;;;;;3.95;1.83;;;17.10;61.80;;;;;;5027999;28;20060;-80
2022/04/24 03:20:33;;;;;;;4.45;1.30;;;17.00;61.60;;;;;;5024223;28;20045;-78
2022/04/24 03:22:59;;;;;;;9.55;2.60;;;17.00;61.50;;;;;;5009971;28;20021;-78
2022/04/24 03:25:26;;;;;;;2.42;1.58;;;17.00;61.60;;;;;;5025146;28;20029;-79
2022/04/24 03:27:52;;;;;;;6.65;1.65;;;17.00;61.90;;;;;;5026722;28;20022;-78
2022/04/24 03:30:19;;;;;;;7.18;1.50;;;17.00;61.70;;;;;;5008553;28;20033;-77
2022/04/24 03:32:46;;;;;;;4.38;1.35;;;17.00;62.20;;;;;;5026508;28;20627;-75
2022/04/24 03:35:13;;;;;;;2.88;1.23;;;17.00;62.20;;;;;;5027022;28;20021;-79
2022/04/24 03:37:41;;;;;;;2.72;1.42;;;17.00;62.00;;;;;;5041037;28;20017;-81
2022/04/24 03:40:08;;;;;;;10.93;2.03;;;17.00;61.80;;;;;;5026649;28;20404;-76
2022/04/24 03:42:36;;;;;;;3.90;1.38;;;17.00;61.80;;;;;;5024707;28;20477;-69
2022/04/24 03:45:06;;;;;;;8.90;1.40;;;17.00;61.80;;;;;;5027065;28;20052;-67
2022/04/24 03:47:33;;;;;;;11.05;2.35;;;17.00;61.90;;;;;;5025025;28;20109;-71
2022/04/24 03:49:59;;;;;;;11.57;5.35;;;17.00;63.00;;;;;;5024829;28;20052;-79
2022/04/24 03:52:26;;;;;;;13.27;4.88;;;17.00;63.50;;;;;;5027288;28;20045;-69
2022/04/24 03:54:52;;;;;;;6.25;2.90;;;17.10;63.00;;;;;;5025517;28;20108;-77
2022/04/24 03:57:20;;;;;;;2.60;2.03;;;17.00;62.90;;;;;;5024906;28;20039;-76
2022/04/24 03:59:47;;;;;;;13.45;3.55;;;17.00;62.80;;;;;;5024153;28;20047;-72
2022/04/24 04:02:14;;;;;;;17.65;2.45;;;17.00;62.60;;;;;;5026452;28;20021;-67
2022/04/24 04:04:41;;;;;;;11.38;2.72;;;17.00;62.20;;;;;;5025106;28;20037;-74
2022/04/24 04:07:07;;;;;;;8.60;1.77;;;17.00;61.70;;;;;;5027001;28;20075;-70
2022/04/24 04:09:34;;;;;;;4.43;1.33;;;16.90;61.30;;;;;;5023926;28;21983;-75
2022/04/24 04:12:01;;;;;;;7.65;2.97;;;16.90;61.20;;;;;;5024424;28;20041;-69
2022/04/24 04:14:28;;;;;;;9.57;1.90;;;16.90;61.20;;;;;;5026866;28;20021;-74
2022/04/24 04:16:54;;;;;;;10.07;2.92;;;16.90;61.00;;;;;;5024421;28;20021;-66
2022/04/24 04:19:21;;;;;;;4.80;2.17;;;16.80;61.00;;;;;;5025930;28;20045;-71
2022/04/24 04:21:48;;;;;;;8.27;1.55;;;16.80;60.90;;;;;;5025913;28;20460;-67
2022/04/24 04:24:14;;;;;;;2.22;1.48;;;16.80;60.80;;;;;;5026955;28;20083;-69
2022/04/24 04:26:41;;;;;;;7.05;1.60;;;16.80;60.70;;;;;;5006323;28;20021;-66
2022/04/24 04:29:08;;;;;;;21.58;3.80;;;16.70;60.60;;;;;;5027113;28;20021;-73
2022/04/24 04:31:34;;;;;;;26.20;13.15;;;16.70;61.20;;;;;;5025935;28;20116;-70
2022/04/24 04:34:01;;;;;;;27.77;15.75;;;16.70;61.60;;;;;;5023553;28;20080;-74
2022/04/24 04:36:27;;;;;;;19.23;10.93;;;16.70;61.30;;;;;;5027174;28;20071;-75
2022/04/24 04:38:54;;;;;;;9.57;5.45;;;16.70;61.30;;;;;;5024831;28;20028;-78
2022/04/24 04:41:20;;;;;;;12.55;5.93;;;16.70;61.10;;;;;;5026665;28;20060;-75
2022/04/24 04:43:47;;;;;;;7.88;3.97;;;16.70;60.90;;;;;;5024761;28;20141;-73
2022/04/24 04:46:13;;;;;;;6.05;2.85;;;16.60;60.80;;;;;;5026432;28;20025;-72
2022/04/24 04:48:40;;;;;;;5.80;1.85;;;16.60;60.70;;;;;;5025496;28;20056;-75
2022/04/24 04:51:06;;;;;;;5.30;1.35;;;16.60;60.60;;;;;;5025818;28;20041;-78
2022/04/24 04:53:34;;;;;;;5.88;1.35;;;16.60;60.60;;;;;;5025966;28;20018;-77
2022/04/24 04:56:01;;;;;;;20.90;1.83;;;16.60;60.70;;;;;;5024235;28;20037;-76
2022/04/24 04:58:27;;;;;;;12.77;1.67;;;16.60;60.60;;;;;;5026705;28;20033;-77
2022/04/24 05:00:55;;;;;;;9.15;2.40;;;16.60;60.90;;;;;;5024113;28;20465;-77
2022/04/24 05:03:23;;;;;;;7.88;2.00;;;16.60;61.20;;;;;;5025882;28;20091;-77
2022/04/24 05:05:50;;;;;;;6.85;1.92;;;16.50;61.00;;;;;;5024064;28;20029;-74
2022/04/24 05:08:16;;;;;;;3.35;1.35;;;16.50;61.10;;;;;;5025732;28;20018;-73
2022/04/24 05:10:42;;;;;;;4.80;2.00;;;16.50;61.10;;;;;;5030703;28;20052;-76
2022/04/24 05:13:10;;;;;;;3.08;2.35;;;16.50;61.20;;;;;;5026467;28;20503;-78
2022/04/24 05:15:37;;;;;;;3.50;1.83;;;16.50;61.40;;;;;;5029387;28;20052;-84
2022/04/24 05:18:04;;;;;;;7.55;2.85;;;16.50;61.50;;;;;;5028720;28;20080;-74
2022/04/24 05:20:31;;;;;;;10.38;2.08;;;16.50;61.60;;;;;;5027443;28;20045;-68
2022/04/24 05:23:07;;;;;;;8.60;2.28;;;16.50;61.70;;;;;;5028943;28;20476;-76
2022/04/24 05:25:35;;;;;;;12.27;1.30;;;16.50;62.40;;;;;;5029490;28;20021;-79
2022/04/24 05:28:05;;;;;;;12.23;2.20;;;16.40;62.20;;;;;;5028961;28;20025;-79
2022/04/24 05:30:33;;;;;;;10.77;1.50;;;16.40;63.60;;;;;;5026360;28;20037;-77
2022/04/24 05:33:00;;;;;;;2.88;1.30;;;16.40;63.50;;;;;;5027606;28;20021;-77
2022/04/24 05:35:26;;;;;;;4.90;1.75;;;16.40;63.00;;;;;;5027939;28;20067;-74
2022/04/24 05:37:53;;;;;;;6.90;1.60;;;16.30;62.60;;;;;;5028573;28;20095;-77
2022/04/24 05:40:20;;;;;;;16.95;3.17;;;16.40;62.40;;;;;;5028617;28;20039;-77
2022/04/24 05:42:51;;;;;;;19.90;9.93;;;16.40;62.50;;;;;;5029516;28;20017;-77
2022/04/24 05:45:22;;;;;;;40.05;26.33;;;16.40;63.20;;;;;;5030320;28;20014;-78
2022/04/24 05:47:53;;;;;;;18.88;11.38;;;16.30;63.50;;;;;;5028923;28;20013;-75
2022/04/24 05:50:21;;;;;;;10.48;5.95;;;16.40;63.40;;;;;;5029074;28;20033;-78
2022/04/24 05:52:48;;;;;;;10.05;4.30;;;16.40;63.20;;;;;;5027804;28;20029;-75
2022/04/24 05:55:14;;;;;;;8.73;2.42;;;16.40;63.20;;;;;;5028571;28;20029;-69
2022/04/24 05:57:42;;;;;;;33.38;3.75;;;16.30;63.10;;;;;;5028051;28;20010;-65
2022/04/24 06:00:12;;;;;;;35.85;3.88;;;16.30;63.20;;;;;;5029593;28;20029;-70
2022/04/24 06:02:40;;;;;;;10.82;4.82;;;16.30;64.10;;;;;;5028433;28;20538;-80
2022/04/24 06:05:07;;;;;;;19.88;12.75;;;16.30;64.10;;;;;;5026754;28;20017;-75
2022/04/24 06:07:34;;;;;;;18.75;8.98;;;16.30;64.20;;;;;;5027519;28;20048;-78
2022/04/24 06:10:00;;;;;;;10.18;5.15;;;16.30;64.20;;;;;;5025191;28;20068;-77
2022/04/24 06:12:27;;;;;;;11.80;4.68;;;16.40;64.20;;;;;;5025700;28;20028;-78
2022/04/24 06:14:53;;;;;;;18.83;3.85;;;16.40;64.30;;;;;;5025986;28;20038;-73
2022/04/24 06:17:20;;;;;;;11.90;2.90;;;16.40;65.10;;;;;;5028909;28;20057;-74
2022/04/24 06:19:46;;;;;;;17.10;8.43;;;16.40;65.90;;;;;;5028532;28;20561;-72
2022/04/24 06:22:13;;;;;;;33.05;22.55;;;16.40;66.40;;;;;;5028490;28;20022;-73
2022/04/24 06:24:39;;;;;;;23.52;13.98;;;16.40;66.70;;;;;;5006358;28;20030;-75
2022/04/24 06:27:06;;;;;;;12.02;7.00;;;16.50;67.10;;;;;;5027505;28;20473;-76
2022/04/24 06:29:32;;;;;;;7.38;4.50;;;16.50;67.40;;;;;;5027257;28;20405;-77
2022/04/24 06:31:59;;;;;;;7.82;3.13;;;16.60;67.50;;;;;;5027445;28;20036;-71
2022/04/24 06:34:25;;;;;;;7.13;2.53;;;16.60;67.80;;;;;;5026463;28;20045;-80
2022/04/24 06:36:51;;;;;;;5.40;2.90;;;16.70;67.90;;;;;;5028260;28;20025;-77
2022/04/24 06:39:21;;;;;;;5.43;2.30;;;16.70;68.10;;;;;;5027819;28;20025;-78
2022/04/24 06:41:47;;;;;;;8.02;2.03;;;16.70;68.30;;;;;;5009783;28;20022;-82
2022/04/24 06:44:14;;;;;;;2.95;1.55;;;16.70;68.10;;;;;;5027252;28;20038;-77
2022/04/24 06:46:40;;;;;;;5.45;1.40;;;16.70;67.80;;;;;;5030360;28;20017;-75
2022/04/24 06:49:07;;;;;;;3.83;1.50;;;16.80;67.70;;;;;;5027541;28;20124;-80
2022/04/24 06:51:33;;;;;;;3.25;1.70;;;16.80;67.60;;;;;;5026085;28;20045;-72
2022/04/24 06:53:59;;;;;;;4.72;1.40;;;16.80;67.60;;;;;;5025795;28;20100;-77
2022/04/24 06:56:26;;;;;;;7.22;1.70;;;16.90;67.60;;;;;;5027804;28;20164;-79
2022/04/24 06:58:52;;;;;;;6.85;1.70;;;16.90;67.60;;;;;;5028196;28;20981;-71
2022/04/24 07:01:19;;;;;;;6.50;1.38;;;16.90;67.60;;;;;;5027087;28;20010;-72
2022/04/24 07:03:46;;;;;;;3.08;1.48;;;17.00;67.60;;;;;;5027618;28;20055;-73
2022/04/24 07:06:12;;;;;;;45.35;4.15;;;17.00;67.60;;;;;;5026293;28;20030;-78
2022/04/24 07:08:39;;;;;;;33.38;4.78;;;17.00;67.60;;;;;;5026890;28;20021;-77
2022/04/24 07:11:06;;;;;;;10.73;4.68;;;17.10;69.00;;;;;;5025291;28;20041;-70
2022/04/24 07:13:32;;;;;;;15.07;3.63;;;17.10;69.40;;;;;;5027119;28;20029;-75
2022/04/24 07:15:59;;;;;;;7.60;2.67;;;17.10;68.40;;;;;;5025159;28;20025;-67
2022/04/24 07:18:27;;;;;;;8.32;2.13;;;17.20;68.20;;;;;;5025350;28;20080;-75
2022/04/24 07:20:55;;;;;;;3.95;1.50;;;17.20;68.00;;;;;;5022872;28;20052;-72
2022/04/24 07:23:22;;;;;;;5.28;2.25;;;17.20;67.90;;;;;;5023447;28;20417;-76
2022/04/24 07:25:49;;;;;;;4.10;1.67;;;17.30;67.70;;;;;;5025918;28;20395;-70
2022/04/24 07:28:19;;;;;;;3.05;1.42;;;17.30;67.60;;;;;;5025278;28;20029;-70
2022/04/24 07:30:46;;;;;;;10.00;2.05;;;17.30;67.50;;;;;;5025418;28;20598;-65
2022/04/24 07:33:12;;;;;;;3.92;1.25;;;17.40;67.50;;;;;;5006418;28;20382;-73
2022/04/24 07:35:41;;;;;;;4.93;2.17;;;17.40;67.20;;;;;;5026746;28;20024;-72
2022/04/24 07:38:07;;;;;;;2.45;1.30;;;17.40;67.20;;;;;;5026780;28;20037;-74
2022/04/24 07:40:35;;;;;;;5.45;1.30;;;17.50;67.10;;;;;;5025687;28;20084;-72
2022/04/24 07:43:07;;;;;;;3.20;1.25;;;17.50;67.00;;;;;;5026399;28;20029;-76
2022/04/24 07:45:36;;;;;;;3.47;1.20;;;17.50;66.80;;;;;;5025424;28;20036;-76
2022/04/24 07:48:04;;;;;;;9.98;1.73;;;17.60;66.90;;;;;;5025649;28;20021;-68
2022/04/24 07:50:34;;;;;;;3.50;1.33;;;17.60;67.00;;;;;;5025172;28;20030;-73
2022/04/24 07:53:02;;;;;;;5.97;1.75;;;17.60;66.90;;;;;;5025928;28;20018;-79
2022/04/24 07:55:29;;;;;;;4.25;1.15;;;17.70;66.90;;;;;;5025169;28;20022;-75
2022/04/24 07:58:00;;;;;;;6.15;1.15;;;17.70;66.80;;;;;;5024188;28;20396;-76
2022/04/24 08:00:35;;;;;;;2.67;1.80;;;17.80;66.80;;;;;;5026243;28;20028;-76
2022/04/24 08:03:03;;;;;;;19.80;1.33;;;17.80;66.60;;;;;;5025840;28;20025;-70
2022/04/24 08:05:36;;;;;;;9.60;2.03;;;17.80;67.20;;;;;;5025795;28;20481;-67
2022/04/24 08:08:11;;;;;;;31.60;6.85;;;17.80;67.00;;;;;;5006637;28;20428;-80
2022/04/24 08:10:41;;;;;;;7.15;4.20;;;17.90;66.90;;;;;;5024083;28;20038;-70
2022/04/24 08:13:08;;;;;;;12.32;2.97;;;17.90;67.10;;;;;;5024800;28;20032;-68
2022/04/24 08:15:36;;;;;;;6.95;2.65;;;17.90;67.10;;;;;;5023808;28;20021;-72
2022/04/24 08:18:04;;;;;;;6.80;2.15;;;18.00;66.80;;;;;;5024310;28;20037;-71
2022/04/24 08:20:32;;;;;;;8.88;2.22;;;18.00;66.50;;;;;;5023422;28;20094;-68
2022/04/24 08:23:04;;;;;;;6.40;2.00;;;18.00;66.30;;;;;;5025377;28;20037;-73
2022/04/24 08:25:34;;;;;;;3.65;1.88;;;18.10;66.20;;;;;;5023939;28;20484;-75
2022/04/24 08:28:06;;;;;;;4.10;2.10;;;18.10;66.10;;;;;;5023047;28;20026;-78
2022/04/24 08:30:34;;;;;;;6.50;2.00;;;18.10;65.70;;;;;;5025097;28;20112;-76
2022/04/24 08:33:01;;;;;;;5.25;1.67;;;18.20;65.50;;;;;;5022898;28;20032;-76
2022/04/24 08:35:28;;;;;;;8.60;2.75;;;18.20;65.40;;;;;;5024597;28;20492;-74
2022/04/24 08:37:54;;;;;;;5.53;1.50;;;18.20;65.20;;;;;;5024226;28;20379;-72
2022/04/24 08:40:24;;;;;;;3.67;1.95;;;18.30;65.20;;;;;;5023468;28;20025;-75
2022/04/24 08:42:55;;;;;;;11.27;2.65;;;18.40;65.10;;;;;;5024523;28;20025;-77
2022/04/24 08:45:29;;;;;;;21.67;12.82;;;18.40;64.90;;;;;;5027325;28;20107;-73
2022/04/24 08:47:57;;;;;;;16.95;7.63;;;18.50;64.40;;;;;;5026800;28;20473;-75
2022/04/24 08:50:28;;;;;;;8.05;4.50;;;18.50;64.20;;;;;;5026761;28;20030;-71
2022/04/24 08:52:57;;;;;;;8.63;3.22;;;18.60;64.30;;;;;;5027063;28;20065;-75
2022/04/24 08:55:29;;;;;;;5.68;3.53;;;18.60;63.40;;;;;;5022216;28;20420;-74
2022/04/24 08:57:56;;;;;;;3.10;2.80;;;18.60;63.10;;;;;;5024831;28;20099;-74
2022/04/24 09:00:24;;;;;;;5.95;2.85;;;18.70;63.00;;;;;;5025145;28;20032;-77
2022/04/24 09:02:51;;;;;;;8.70;3.15;;;18.70;63.00;;;;;;5025187;28;20141;-70
2022/04/24 09:05:17;;;;;;;5.15;2.97;;;18.70;63.10;;;;;;5005089;28;20499;-77
2022/04/24 09:07:45;;;;;;;3.47;2.15;;;18.80;63.10;;;;;;5027472;28;20032;-81
2022/04/24 09:10:12;;;;;;;6.60;3.10;;;18.80;63.00;;;;;;5029088;28;20057;-75
2022/04/24 09:12:41;;;;;;;16.20;2.95;;;18.80;62.90;;;;;;5026655;28;20029;-69
2022/04/24 09:15:19;;;;;;;7.90;3.80;;;18.90;62.70;;;;;;5025907;28;20112;-71
2022/04/24 09:17:46;;;;;;;14.45;4.30;;;18.90;62.60;;;;;;5025523;28;20037;-80
2022/04/24 09:20:21;;;;;;;9.93;3.60;;;18.90;62.50;;;;;;5027481;28;20053;-73
2022/04/24 09:22:48;;;;;;;13.23;4.72;;;18.90;62.30;;;;;;5011590;28;20030;-79
2022/04/24 09:25:14;;;;;;;10.88;3.58;;;19.00;62.00;;;;;;5028166;28;20014;-72
2022/04/24 09:27:41;;;;;;;11.07;3.60;;;19.00;61.80;;;;;;5029758;28;20028;-83
2022/04/24 09:30:14;;;;;;;10.52;3.03;;;19.10;61.40;;;;;;5029025;28;20034;-77
2022/04/24 09:32:57;;;;;;;11.48;4.30;;;19.10;61.10;;;;;;5029379;28;20037;-81
2022/04/24 09:35:32;;;;;;;16.58;4.50;;;19.10;61.10;;;;;;5028395;28;20029;-76
2022/04/24 09:38:17;;;;;;;13.02;4.00;;;19.10;61.00;;;;;;5028912;28;20033;-79
2022/04/24 09:40:45;;;;;;;17.05;3.38;;;19.10;61.10;;;;;;5028612;28;20045;-80
2022/04/24 09:43:18;;;;;;;17.40;3.88;;;19.10;61.30;;;;;;5028648;28;20076;-68
2022/04/24 09:45:50;;;;;;;11.23;3.40;;;19.00;61.30;;;;;;5029981;28;20036;-77
2022/04/24 09:48:18;;;;;;;13.40;4.28;;;19.00;61.40;;;;;;5028516;28;20120;-83
2022/04/24 09:50:45;;;;;;;18.00;3.90;;;19.00;61.40;;;;;;5027847;28;20033;-82
2022/04/24 09:53:14;;;;;;;13.23;3.40;;;19.10;61.60;;;;;;5030966;28;20136;-83
2022/04/24 09:55:44;;;;;;;10.15;3.13;;;19.10;61.60;;;;;;5028293;28;20413;-83
2022/04/24 09:58:13;;;;;;;18.52;3.45;;;19.20;61.50;;;;;;5029876;28;20038;-79
2022/04/24 10:00:44;;;;;;;11.52;3.63;;;19.30;61.60;;;;;;5027618;28;20052;-81
2022/04/24 10:03:17;;;;;;;6.82;2.55;;;19.40;61.60;;;;;;5028898;28;20068;-79
2022/04/24 10:05:47;;;;;;;20.63;3.80;;;19.40;61.30;;;;;;5028271;28;20116;-80
2022/04/24 10:08:16;;;;;;;17.10;3.88;;;19.40;61.40;;;;;;5028770;28;20071;-81
2022/04/24 10:10:44;;;;;;;8.55;1.95;;;19.40;61.30;;;;;;5029203;28;20605;-81
2022/04/24 10:13:12;;;;;;;11.10;1.67;;;19.50;61.00;;;;;;5028230;28;20029;-81
2022/04/24 10:15:55;;;;;;;6.13;2.47;;;19.40;60.40;;;;;;5028129;28;20030;-81
2022/04/24 10:18:37;;;;;;;11.88;2.22;;;19.40;60.20;;;;;;5028803;28;20038;-79
2022/04/24 10:21:44;;;;;;;6.55;2.25;;;19.40;60.80;;;;;;5028366;28;20040;-81
2022/04/24 10:24:12;;;;;;;10.68;3.13;;;19.30;61.90;;;;;;5015243;28;20037;-80
2022/04/24 10:26:39;;;;;;;9.82;3.42;;;19.30;63.10;;;;;;5026375;28;20100;-82
2022/04/24 10:29:10;;;;;;;7.07;4.03;;;19.30;64.50;;;;;;5027253;28;20053;-82
2022/04/24 10:31:47;;;;;;;12.05;2.83;;;19.20;65.50;;;;;;5028160;28;20037;-81
2022/04/24 10:34:16;;;;;;;7.00;2.80;;;19.10;66.00;;;;;;5026699;28;20523;-82
2022/04/24 10:37:04;;;;;;;10.43;2.90;;;19.10;66.70;;;;;;5025906;28;20449;-81
2022/04/24 10:39:40;;;;;;;10.10;3.50;;;19.10;66.90;;;;;;5027700;28;20579;-82
2022/04/24 10:42:14;;;;;;;5.57;2.28;;;19.10;67.00;;;;;;5004606;28;20492;-81
2022/04/24 10:44:51;;;;;;;13.15;3.25;;;19.10;67.00;;;;;;5028180;28;20029;-84
2022/04/24 10:47:18;;;;;;;6.40;2.88;;;19.10;67.20;;;;;;5028763;28;20018;-80
2022/04/24 10:49:44;;;;;;;16.13;3.70;;;19.20;66.90;;;;;;5027539;28;20026;-81
2022/04/24 10:52:11;;;;;;;9.27;3.20;;;19.20;66.50;;;;;;5027166;28;20029;-81
2022/04/24 10:54:40;;;;;;;14.30;3.63;;;19.30;65.90;;;;;;5008942;28;20033;-75
2022/04/24 10:57:23;;;;;;;14.43;3.60;;;19.40;65.70;;;;;;5027762;28;20021;-78
2022/04/24 10:59:53;;;;;;;8.55;2.70;;;19.40;64.80;;;;;;5026604;28;20029;-79
2022/04/24 11:02:22;;;;;;;15.50;2.88;;;19.50;64.20;;;;;;5028259;28;20030;-81
2022/04/24 11:04:59;;;;;;;6.00;1.75;;;19.60;63.70;;;;;;5026326;28;20108;-73
2022/04/24 11:07:26;;;;;;;5.60;1.70;;;19.70;63.40;;;;;;5025933;28;20026;-79
2022/04/24 11:10:02;;;;;;;6.68;1.70;;;19.80;63.00;;;;;;5041718;28;20021;-81
2022/04/24 11:12:33;;;;;;;12.10;2.25;;;19.90;62.60;;;;;;5028161;28;20504;-75
2022/04/24 11:15:06;;;;;;;5.35;2.25;;;20.00;61.70;;;;;;5027763;28;20021;-75
2022/04/24 11:17:34;;;;;;;5.82;2.10;;;20.00;61.20;;;;;;5007179;28;20040;-74
2022/04/24 11:20:04;;;;;;;2.72;1.25;;;19.90;60.60;;;;;;5027289;28;20033;-76
2022/04/24 11:22:32;;;;;;;3.45;1.15;;;19.90;60.50;;;;;;5024971;28;20133;-75
2022/04/24 11:24:59;;;;;;;9.00;1.42;;;19.90;60.40;;;;;;5028167;28;20071;-74
2022/04/24 11:27:27;;;;;;;5.03;1.40;;;19.80;60.50;;;;;;5026413;28;20026;-75
2022/04/24 11:29:53;;;;;;;11.85;1.30;;;19.70;60.60;;;;;;5027262;28;20106;-71
2022/04/24 11:32:20;;;;;;;15.68;2.00;;;19.70;61.00;;;;;;5026067;28;20021;-77
2022/04/24 11:34:47;;;;;;;4.70;1.13;;;19.60;61.20;;;;;;5027104;28;20014;-75
2022/04/24 11:37:13;;;;;;;6.47;1.80;;;19.60;61.80;;;;;;5028920;28;20376;-73
2022/04/24 11:39:40;;;;;;;8.75;1.20;;;19.50;62.40;;;;;;5026210;28;20068;-80
2022/04/24 11:42:07;;;;;;;5.07;1.13;;;19.50;62.60;;;;;;5027890;28;20072;-72
2022/04/24 11:50:15;;;;;;;8.15;1.40;;;19.50;62.40;;;;;;5025372;28;20493;-72
2022/04/24 11:52:47;;;;;;;12.40;1.75;;;19.60;62.90;;;;;;5025840;28;20025;-69
2022/04/24 11:55:21;;;;;;;8.63;1.60;;;19.70;63.00;;;;;;5008684;28;20040;-73
2022/04/24 11:57:59;;;;;;;4.13;1.35;;;19.70;62.60;;;;;;5026274;28;20033;-68
2022/04/24 12:00:40;;;;;;;6.30;1.67;;;19.70;62.40;;;;;;5026229;28;20022;-74
2022/04/24 12:03:07;;;;;;;5.50;1.77;;;19.70;62.80;;;;;;5027555;28;20108;-69
2022/04/24 12:05:34;;;;;;;7.47;1.30;;;19.70;64.40;;;;;;5025393;28;20009;-75
2022/04/24 12:08:01;;;;;;;5.85;1.75;;;19.60;66.30;;;;;;5009164;28;20026;-68
2022/04/24 12:10:28;;;;;;;5.60;1.90;;;19.60;67.30;;;;;;5025994;28;20116;-73
2022/04/24 12:12:55;;;;;;;5.57;2.45;;;19.60;68.80;;;;;;5027236;28;20025;-72
2022/04/24 12:15:24;;;;;;;4.10;2.03;;;19.50;69.20;;;;;;5026741;28;20047;-73
2022/04/24 12:17:58;;;;;;;8.25;2.80;;;19.50;69.60;;;;;;5026645;28;20025;-71
2022/04/24 12:20:40;;;;;;;15.68;3.20;;;19.50;70.10;;;;;;5023932;28;20045;-74
2022/04/24 12:23:15;;;;;;;13.05;2.13;;;19.50;70.30;;;;;;5023545;28;20100;-73
2022/04/24 12:25:58;;;;;;;9.75;2.05;;;19.50;69.90;;;;;;5026016;28;20496;-71
2022/04/24 12:28:37;;;;;;;21.77;3.13;;;19.60;69.80;;;;;;5025296;28;20033;-68
2022/04/24 12:31:06;;;;;;;14.65;2.28;;;19.60;69.60;;;;;;5023970;28;20493;-73
2022/04/24 12:33:44;;;;;;;8.35;3.10;;;19.70;69.40;;;;;;5025500;28;20024;-71
2022/04/24 12:36:13;;;;;;;6.90;3.90;;;19.70;69.20;;;;;;5023818;28;20481;-70
2022/04/24 12:38:40;;;;;;;6.70;3.05;;;19.90;69.00;;;;;;5026675;28;20524;-71
2022/04/24 12:41:12;;;;;;;2.50;1.55;;;19.90;68.50;;;;;;5024391;28;20530;-72
2022/04/24 12:43:38;;;;;;;7.70;3.08;;;20.00;67.70;;;;;;5026728;28;20107;-72
2022/04/24 12:46:05;;;;;;;6.95;1.45;;;20.10;67.00;;;;;;5026737;28;20022;-75
2022/04/24 12:48:32;;;;;;;6.28;1.77;;;20.00;66.80;;;;;;5026143;28;20029;-73
2022/04/24 12:50:58;;;;;;;3.35;1.25;;;20.00;67.00;;;;;;5026351;28;20032;-66
2022/04/24 12:53:24;;;;;;;3.65;1.73;;;20.00;67.00;;;;;;5026073;28;20140;-76
2022/04/24 12:55:51;;;;;;;8.77;2.97;;;20.00;67.10;;;;;;5024978;28;20029;-77